sensor_id;sensor_type;location;lat;lon;timestamp;pressure;altitude;pressure_sealevel;temperature;humidity
15914;BME280;8055;51.930;8.840;2024-02-23T00:00:04;74070.34;;;-145.72;77.05
15914;BME280;8055;51.930;8.840;2024-02-23T00:02:31;74088.97;;;-145.72;78.49
15914;BME280;8055;51.930;8.840;2024-02-23T00:04:56;74068.28;;;-145.72;79.74
15914;BME280;8055;51.930;8.840;2024-02-23T00:07:22;74091.03;;;-145.72;78.41
15914;BME280;8055;51.930;8.840;2024-02-23T00:09:47;74082.75;;;-145.72;76.16
15914;BME280;8055;51.930;8.840;2024-02-23T00:12:12;74064.13;;;-145.72;75.95
15914;BME280;8055;51.930;8.840;2024-02-23T00:14:39;74093.09;;;-145.72;74.72
15914;BME280;8055;51.930;8.840;2024-02-23T00:17:04;74124.13;;;-145.72;73.22
15914;BME280;8055;51.930;8.840;2024-02-23T00:19:32;74101.38;;;-145.72;73.39
15914;BME280;8055;51.930;8.840;2024-02-23T00:21:58;74103.44;;;-145.72;76.38
15914;BME280;8055;51.930;8.840;2024-02-23T00:24:25;74134.47;;;-145.72;75.02
15914;BME280;8055;51.930;8.840;2024-02-23T00:26:50;74132.41;;;-145.72;76.12
15914;BME280;8055;51.930;8.840;2024-02-23T00:29:17;74122.06;;;-145.72;76.61
15914;BME280;8055;51.930;8.840;2024-02-23T00:31:42;74151.00;;;-145.72;76.29
15914;BME280;8055;51.930;8.840;2024-02-23T00:34:08;74184.09;;;-145.72;79.08
15914;BME280;8055;51.930;8.840;2024-02-23T00:36:38;74202.72;;;-145.72;78.86
15914;BME280;8055;51.930;8.840;2024-02-23T00:39:03;74217.19;;;-145.72;81.51
15914;BME280;8055;51.930;8.840;2024-02-23T00:41:29;74244.09;;;-145.72;82.27
15914;BME280;8055;51.930;8.840;2024-02-23T00:43:54;74235.81;;;-145.72;84.56
15914;BME280;8055;51.930;8.840;2024-02-23T00:46:19;74275.13;;;-145.72;83.24
15914;BME280;8055;51.930;8.840;2024-02-23T00:48:45;74287.53;;;-145.72;83.76
15914;BME280;8055;51.930;8.840;2024-02-23T00:51:10;74306.16;;;-145.72;84.53
15914;BME280;8055;51.930;8.840;2024-02-23T00:53:35;74314.41;;;-145.72;84.83
15914;BME280;8055;51.930;8.840;2024-02-23T00:56:01;74333.03;;;-145.72;85.73
15914;BME280;8055;51.930;8.840;2024-02-23T00:58:26;74355.78;;;-145.72;88.44
15914;BME280;8055;51.930;8.840;2024-02-23T01:00:51;74401.28;;;-145.72;93.80
15914;BME280;8055;51.930;8.840;2024-02-23T01:03:17;74419.91;;;-145.72;98.69
15914;BME280;8055;51.930;8.840;2024-02-23T01:05:42;74453.00;;;-145.72;100.00
15914;BME280;8055;51.930;8.840;2024-02-23T01:08:08;74475.75;;;-145.72;100.00
15914;BME280;8055;51.930;8.840;2024-02-23T01:10:33;74475.75;;;-145.72;99.74
15914;BME280;8055;51.930;8.840;2024-02-23T01:12:58;74508.88;;;-145.72;98.97
15914;BME280;8055;51.930;8.840;2024-02-23T01:15:24;74513.00;;;-145.72;98.84
15914;BME280;8055;51.930;8.840;2024-02-23T01:17:49;74515.06;;;-145.72;100.00
15914;BME280;8055;51.930;8.840;2024-02-23T01:20:14;74521.28;;;-145.72;99.40
15914;BME280;8055;51.930;8.840;2024-02-23T01:22:40;74508.88;;;-145.72;100.00
15914;BME280;8055;51.930;8.840;2024-02-23T01:25:05;74535.75;;;-145.72;98.16
15914;BME280;8055;51.930;8.840;2024-02-23T01:27:31;74568.84;;;-145.72;98.87
15914;BME280;8055;51.930;8.840;2024-02-23T01:29:56;74573.00;;;-145.72;98.58
15914;BME280;8055;51.930;8.840;2024-02-23T01:32:22;74583.34;;;-145.72;97.92
15914;BME280;8055;51.930;8.840;2024-02-23T01:34:48;74587.47;;;-145.72;98.86
15914;BME280;8055;51.930;8.840;2024-02-23T01:37:13;74606.09;;;-145.72;98.62
15914;BME280;8055;51.930;8.840;2024-02-23T01:39:38;74628.84;;;-145.72;100.00
15914;BME280;8055;51.930;8.840;2024-02-23T01:42:04;74641.25;;;-145.72;100.00
15914;BME280;8055;51.930;8.840;2024-02-23T01:44:29;74645.38;;;-145.72;100.00
15914;BME280;8055;51.930;8.840;2024-02-23T01:46:55;74657.81;;;-145.72;100.00
15914;BME280;8055;51.930;8.840;2024-02-23T01:49:20;74651.59;;;-145.72;100.00
15914;BME280;8055;51.930;8.840;2024-02-23T01:51:48;74686.75;;;-145.72;100.00
15914;BME280;8055;51.930;8.840;2024-02-23T01:54:13;74664.00;;;-145.72;99.59
15914;BME280;8055;51.930;8.840;2024-02-23T01:56:39;74680.56;;;-145.72;100.00
15914;BME280;8055;51.930;8.840;2024-02-23T01:59:05;74699.19;;;-145.72;100.00
15914;BME280;8055;51.930;8.840;2024-02-23T02:01:31;74692.97;;;-145.72;100.00
15914;BME280;8055;51.930;8.840;2024-02-23T02:03:57;74695.03;;;-145.72;100.00
15914;BME280;8055;51.930;8.840;2024-02-23T02:06:24;74709.53;;;-145.72;100.00
15914;BME280;8055;51.930;8.840;2024-02-23T02:08:50;74707.44;;;-145.72;99.17
15914;BME280;8055;51.930;8.840;2024-02-23T02:11:15;74709.53;;;-145.72;100.00
15914;BME280;8055;51.930;8.840;2024-02-23T02:13:41;74713.66;;;-145.72;100.00
15914;BME280;8055;51.930;8.840;2024-02-23T02:16:06;74715.72;;;-145.72;100.00
15914;BME280;8055;51.930;8.840;2024-02-23T02:18:31;74726.06;;;-145.72;98.40
15914;BME280;8055;51.930;8.840;2024-02-23T02:20:57;74746.75;;;-145.72;98.43
15914;BME280;8055;51.930;8.840;2024-02-23T02:23:24;74736.41;;;-145.72;97.88
15914;BME280;8055;51.930;8.840;2024-02-23T02:25:56;74757.09;;;-145.72;100.00
15914;BME280;8055;51.930;8.840;2024-02-23T02:28:23;74777.78;;;-145.72;100.00
15914;BME280;8055;51.930;8.840;2024-02-23T02:30:50;74746.75;;;-145.72;100.00
15914;BME280;8055;51.930;8.840;2024-02-23T02:33:15;74752.97;;;-145.72;100.00
15914;BME280;8055;51.930;8.840;2024-02-23T02:35:41;74757.09;;;-145.72;100.00
15914;BME280;8055;51.930;8.840;2024-02-23T02:38:06;74779.84;;;-145.72;100.00
15914;BME280;8055;51.930;8.840;2024-02-23T02:40:31;74779.84;;;-145.72;99.59
15914;BME280;8055;51.930;8.840;2024-02-23T02:42:57;74786.06;;;-145.72;100.00
15914;BME280;8055;51.930;8.840;2024-02-23T02:45:23;74796.41;;;-145.72;100.00
15914;BME280;8055;51.930;8.840;2024-02-23T02:47:48;74790.19;;;-145.72;99.87
15914;BME280;8055;51.930;8.840;2024-02-23T02:50:13;74806.75;;;-145.72;98.79
15914;BME280;8055;51.930;8.840;2024-02-23T02:52:39;74784.00;;;-145.72;98.89
15914;BME280;8055;51.930;8.840;2024-02-23T02:55:04;74798.47;;;-145.72;97.41
15914;BME280;8055;51.930;8.840;2024-02-23T02:57:30;74804.69;;;-145.72;100.00
15914;BME280;8055;51.930;8.840;2024-02-23T02:59:55;74817.09;;;-145.72;98.10
15914;BME280;8055;51.930;8.840;2024-02-23T03:02:21;74798.47;;;-145.72;98.93
15914;BME280;8055;51.930;8.840;2024-02-23T03:04:50;74802.63;;;-145.72;99.10
15914;BME280;8055;51.930;8.840;2024-02-23T03:07:16;74808.81;;;-145.72;93.53
15914;BME280;8055;51.930;8.840;2024-02-23T03:09:42;74798.47;;;-145.72;92.93
15914;BME280;8055;51.930;8.840;2024-02-23T03:12:08;74798.47;;;-145.72;95.20
15914;BME280;8055;51.930;8.840;2024-02-23T03:14:33;74794.34;;;-145.72;99.00
15914;BME280;8055;51.930;8.840;2024-02-23T03:16:59;74810.88;;;-145.72;95.70
15914;BME280;8055;51.930;8.840;2024-02-23T03:19:24;74819.16;;;-145.72;95.78
15914;BME280;8055;51.930;8.840;2024-02-23T03:21:50;74798.47;;;-145.72;95.43
15914;BME280;8055;51.930;8.840;2024-02-23T03:24:16;74806.75;;;-145.72;93.09
15914;BME280;8055;51.930;8.840;2024-02-23T03:26:41;74815.03;;;-145.72;94.65
15914;BME280;8055;51.930;8.840;2024-02-23T03:29:07;74810.88;;;-145.72;95.50
15914;BME280;8055;51.930;8.840;2024-02-23T03:31:32;74815.03;;;-145.72;97.42
15914;BME280;8055;51.930;8.840;2024-02-23T03:33:57;74815.03;;;-145.72;95.46
15914;BME280;8055;51.930;8.840;2024-02-23T03:36:23;74817.09;;;-145.72;95.85
15914;BME280;8055;51.930;8.840;2024-02-23T03:38:48;74819.16;;;-145.72;95.08
15914;BME280;8055;51.930;8.840;2024-02-23T03:41:14;74821.22;;;-145.72;96.71
15914;BME280;8055;51.930;8.840;2024-02-23T03:43:39;74827.44;;;-145.72;96.49
15914;BME280;8055;51.930;8.840;2024-02-23T03:46:06;74823.28;;;-145.72;94.69
15914;BME280;8055;51.930;8.840;2024-02-23T03:48:31;74829.50;;;-145.72;94.68
15914;BME280;8055;51.930;8.840;2024-02-23T03:50:57;74810.88;;;-145.72;93.06
15914;BME280;8055;51.930;8.840;2024-02-23T03:53:22;74819.16;;;-145.72;92.59
15914;BME280;8055;51.930;8.840;2024-02-23T03:55:48;74812.94;;;-145.72;92.51
15914;BME280;8055;51.930;8.840;2024-02-23T03:58:13;74819.16;;;-145.72;92.73
15914;BME280;8055;51.930;8.840;2024-02-23T04:00:38;74825.38;;;-145.72;93.20
15914;BME280;8055;51.930;8.840;2024-02-23T04:03:04;74817.09;;;-145.72;92.18
15914;BME280;8055;51.930;8.840;2024-02-23T04:05:29;74815.03;;;-145.72;93.47
15914;BME280;8055;51.930;8.840;2024-02-23T04:07:55;74815.03;;;-145.72;91.96
15914;BME280;8055;51.930;8.840;2024-02-23T04:10:20;74808.81;;;-145.72;90.66
15914;BME280;8055;51.930;8.840;2024-02-23T04:12:48;74806.75;;;-145.72;90.22
15914;BME280;8055;51.930;8.840;2024-02-23T04:15:14;74817.09;;;-145.72;92.68
15914;BME280;8055;51.930;8.840;2024-02-23T04:17:39;74810.88;;;-145.72;87.73
15914;BME280;8055;51.930;8.840;2024-02-23T04:20:07;74810.88;;;-145.72;88.44
15914;BME280;8055;51.930;8.840;2024-02-23T04:22:33;74833.63;;;-145.72;90.21
15914;BME280;8055;51.930;8.840;2024-02-23T04:24:58;74831.56;;;-145.72;87.83
15914;BME280;8055;51.930;8.840;2024-02-23T04:27:23;74839.84;;;-145.72;89.92
15914;BME280;8055;51.930;8.840;2024-02-23T04:29:49;74837.78;;;-145.72;87.56
15914;BME280;8055;51.930;8.840;2024-02-23T04:32:14;74829.50;;;-145.72;87.86
15914;BME280;8055;51.930;8.840;2024-02-23T04:34:40;74825.38;;;-145.72;85.61
15914;BME280;8055;51.930;8.840;2024-02-23T04:37:06;74827.44;;;-145.72;86.81
15914;BME280;8055;51.930;8.840;2024-02-23T04:39:32;74823.28;;;-145.72;86.71
15914;BME280;8055;51.930;8.840;2024-02-23T04:41:57;74839.84;;;-145.72;86.87
15914;BME280;8055;51.930;8.840;2024-02-23T04:44:23;74848.13;;;-145.72;87.75
15914;BME280;8055;51.930;8.840;2024-02-23T04:46:48;74848.13;;;-145.72;87.83
15914;BME280;8055;51.930;8.840;2024-02-23T04:49:14;74848.13;;;-145.72;88.47
15914;BME280;8055;51.930;8.840;2024-02-23T04:51:39;74860.53;;;-145.72;86.93
15914;BME280;8055;51.930;8.840;2024-02-23T04:54:05;74852.25;;;-145.72;85.67
15914;BME280;8055;51.930;8.840;2024-02-23T04:56:31;74872.94;;;-145.72;86.46
15914;BME280;8055;51.930;8.840;2024-02-23T04:58:56;74875.00;;;-145.72;86.54
15914;BME280;8055;51.930;8.840;2024-02-23T05:01:22;74897.78;;;-145.72;86.87
15914;BME280;8055;51.930;8.840;2024-02-23T05:03:48;74889.50;;;-145.72;86.87
15914;BME280;8055;51.930;8.840;2024-02-23T05:06:13;74897.78;;;-145.72;89.47
15914;BME280;8055;51.930;8.840;2024-02-23T05:08:39;74897.78;;;-145.72;86.11
15914;BME280;8055;51.930;8.840;2024-02-23T05:11:04;74910.19;;;-145.72;87.61
15914;BME280;8055;51.930;8.840;2024-02-23T05:13:29;74910.19;;;-145.72;88.79
15914;BME280;8055;51.930;8.840;2024-02-23T05:15:58;74906.03;;;-145.72;88.73
15914;BME280;8055;51.930;8.840;2024-02-23T05:18:23;74906.03;;;-145.72;89.06
15914;BME280;8055;51.930;8.840;2024-02-23T05:20:48;74906.03;;;-145.72;88.50
15914;BME280;8055;51.930;8.840;2024-02-23T05:23:14;74906.03;;;-145.72;88.77
15914;BME280;8055;51.930;8.840;2024-02-23T05:25:43;74910.19;;;-145.72;88.89
15914;BME280;8055;51.930;8.840;2024-02-23T05:28:09;74906.03;;;-145.72;90.57
15914;BME280;8055;51.930;8.840;2024-02-23T05:30:34;74903.97;;;-145.72;90.25
15914;BME280;8055;51.930;8.840;2024-02-23T05:32:59;74901.91;;;-145.72;88.44
15914;BME280;8055;51.930;8.840;2024-02-23T05:35:28;74897.78;;;-145.72;87.39
15914;BME280;8055;51.930;8.840;2024-02-23T05:37:53;74906.03;;;-145.72;88.31
15914;BME280;8055;51.930;8.840;2024-02-23T05:40:19;74918.47;;;-145.72;88.21
15914;BME280;8055;51.930;8.840;2024-02-23T05:42:44;74918.47;;;-145.72;88.80
15914;BME280;8055;51.930;8.840;2024-02-23T05:45:10;74937.06;;;-145.72;88.39
15914;BME280;8055;51.930;8.840;2024-02-23T05:47:36;74937.06;;;-145.72;88.36
15914;BME280;8055;51.930;8.840;2024-02-23T05:50:03;74928.81;;;-145.72;90.23
15914;BME280;8055;51.930;8.840;2024-02-23T05:52:31;74937.06;;;-145.72;88.97
15914;BME280;8055;51.930;8.840;2024-02-23T05:54:57;74937.06;;;-145.72;90.00
15914;BME280;8055;51.930;8.840;2024-02-23T05:57:22;74937.06;;;-145.72;88.81
15914;BME280;8055;51.930;8.840;2024-02-23T05:59:47;74947.44;;;-145.72;89.54
15914;BME280;8055;51.930;8.840;2024-02-23T06:02:13;74959.84;;;-145.72;89.30
15914;BME280;8055;51.930;8.840;2024-02-23T06:04:40;74945.34;;;-145.72;89.33
15914;BME280;8055;51.930;8.840;2024-02-23T06:07:06;74928.81;;;-145.72;89.48
15914;BME280;8055;51.930;8.840;2024-02-23T06:09:31;74937.06;;;-145.72;88.59
15914;BME280;8055;51.930;8.840;2024-02-23T06:11:56;74935.00;;;-145.72;88.64
15914;BME280;8055;51.930;8.840;2024-02-23T06:14:22;74945.34;;;-145.72;87.83
15914;BME280;8055;51.930;8.840;2024-02-23T06:16:48;74939.16;;;-145.72;86.95
15914;BME280;8055;51.930;8.840;2024-02-23T06:19:14;74949.50;;;-145.72;89.34
15914;BME280;8055;51.930;8.840;2024-02-23T06:21:40;74951.56;;;-145.72;88.11
15914;BME280;8055;51.930;8.840;2024-02-23T06:24:06;74943.28;;;-145.72;88.70
15914;BME280;8055;51.930;8.840;2024-02-23T06:26:34;74955.69;;;-145.72;87.95
15914;BME280;8055;51.930;8.840;2024-02-23T06:28:59;74957.78;;;-145.72;88.38
15914;BME280;8055;51.930;8.840;2024-02-23T06:31:25;74963.97;;;-145.72;89.01
15914;BME280;8055;51.930;8.840;2024-02-23T06:33:50;74951.56;;;-145.72;87.77
15914;BME280;8055;51.930;8.840;2024-02-23T06:36:17;74947.44;;;-145.72;86.08
15914;BME280;8055;51.930;8.840;2024-02-23T06:38:44;74957.78;;;-145.72;88.64
15914;BME280;8055;51.930;8.840;2024-02-23T06:41:11;74957.78;;;-145.72;89.03
15914;BME280;8055;51.930;8.840;2024-02-23T06:43:36;74957.78;;;-145.72;89.23
15914;BME280;8055;51.930;8.840;2024-02-23T06:46:06;74951.56;;;-145.72;90.02
15914;BME280;8055;51.930;8.840;2024-02-23T06:48:32;74955.69;;;-145.72;89.55
15914;BME280;8055;51.930;8.840;2024-02-23T06:50:58;74953.63;;;-145.72;88.74
15914;BME280;8055;51.930;8.840;2024-02-23T06:53:23;74955.69;;;-145.72;88.54
15914;BME280;8055;51.930;8.840;2024-02-23T06:55:48;74949.50;;;-145.72;87.24
15914;BME280;8055;51.930;8.840;2024-02-23T06:58:14;74955.69;;;-145.72;88.89
15914;BME280;8055;51.930;8.840;2024-02-23T07:00:41;74945.34;;;-145.72;88.36
15914;BME280;8055;51.930;8.840;2024-02-23T07:03:07;74947.44;;;-145.72;88.20
15914;BME280;8055;51.930;8.840;2024-02-23T07:05:32;74957.78;;;-145.72;88.21
15914;BME280;8055;51.930;8.840;2024-02-23T07:07:57;74943.28;;;-145.72;89.99
15914;BME280;8055;51.930;8.840;2024-02-23T07:10:23;74955.69;;;-145.72;87.83
15914;BME280;8055;51.930;8.840;2024-02-23T07:12:50;74963.97;;;-145.72;88.39
15914;BME280;8055;51.930;8.840;2024-02-23T07:15:19;74972.25;;;-145.72;87.69
15914;BME280;8055;51.930;8.840;2024-02-23T07:17:45;74972.25;;;-145.72;88.07
15914;BME280;8055;51.930;8.840;2024-02-23T07:20:11;74968.13;;;-145.72;87.39
15914;BME280;8055;51.930;8.840;2024-02-23T07:22:36;74972.25;;;-145.72;88.61
15914;BME280;8055;51.930;8.840;2024-02-23T07:25:01;74968.13;;;-145.72;88.31
15914;BME280;8055;51.930;8.840;2024-02-23T07:27:30;74972.25;;;-145.72;88.68
15914;BME280;8055;51.930;8.840;2024-02-23T07:29:56;74968.13;;;-145.72;87.50
15914;BME280;8055;51.930;8.840;2024-02-23T07:32:21;74968.13;;;-145.72;87.63
15914;BME280;8055;51.930;8.840;2024-02-23T07:34:46;74972.25;;;-145.72;90.04
15914;BME280;8055;51.930;8.840;2024-02-23T07:37:13;74972.25;;;-145.72;87.60
15914;BME280;8055;51.930;8.840;2024-02-23T07:39:38;74972.25;;;-145.72;91.24
15914;BME280;8055;51.930;8.840;2024-02-23T07:42:04;74978.47;;;-145.72;87.59
15914;BME280;8055;51.930;8.840;2024-02-23T07:44:31;74980.53;;;-145.72;88.44
15914;BME280;8055;51.930;8.840;2024-02-23T07:46:56;74986.72;;;-145.72;87.82
15914;BME280;8055;51.930;8.840;2024-02-23T07:49:23;74980.53;;;-145.72;88.02
15914;BME280;8055;51.930;8.840;2024-02-23T07:51:49;74988.81;;;-145.72;86.91
15914;BME280;8055;51.930;8.840;2024-02-23T07:54:14;74988.81;;;-145.72;88.16
15914;BME280;8055;51.930;8.840;2024-02-23T07:56:40;74982.59;;;-145.72;87.08
15914;BME280;8055;51.930;8.840;2024-02-23T07:59:05;74988.81;;;-145.72;86.38
15914;BME280;8055;51.930;8.840;2024-02-23T08:01:30;74980.53;;;-145.72;85.17
15914;BME280;8055;51.930;8.840;2024-02-23T08:03:57;74976.38;;;-145.72;86.75
15914;BME280;8055;51.930;8.840;2024-02-23T08:06:22;74976.38;;;-145.72;85.67
15914;BME280;8055;51.930;8.840;2024-02-23T08:08:47;74980.53;;;-145.72;86.47
15914;BME280;8055;51.930;8.840;2024-02-23T08:11:13;74968.13;;;-145.72;87.39
15914;BME280;8055;51.930;8.840;2024-02-23T08:13:39;74978.47;;;-145.72;85.65
15914;BME280;8055;51.930;8.840;2024-02-23T08:16:04;74972.25;;;-145.72;85.02
15914;BME280;8055;51.930;8.840;2024-02-23T08:18:31;74982.59;;;-145.72;84.63
15914;BME280;8055;51.930;8.840;2024-02-23T08:20:56;74999.16;;;-145.72;86.87
15914;BME280;8055;51.930;8.840;2024-02-23T08:23:23;74984.66;;;-145.72;85.69
15914;BME280;8055;51.930;8.840;2024-02-23T08:25:48;74992.94;;;-145.72;84.89
15914;BME280;8055;51.930;8.840;2024-02-23T08:28:14;74988.81;;;-145.72;85.33
15914;BME280;8055;51.930;8.840;2024-02-23T08:30:39;74988.81;;;-145.72;83.42
15914;BME280;8055;51.930;8.840;2024-02-23T08:33:05;74999.16;;;-145.72;84.36
15914;BME280;8055;51.930;8.840;2024-02-23T08:35:30;74997.06;;;-145.72;85.75
15914;BME280;8055;51.930;8.840;2024-02-23T08:37:56;74995.00;;;-145.72;85.84
15914;BME280;8055;51.930;8.840;2024-02-23T08:40:21;74978.47;;;-145.72;85.81
15914;BME280;8055;51.930;8.840;2024-02-23T08:42:47;74997.06;;;-145.72;85.06
15914;BME280;8055;51.930;8.840;2024-02-23T08:45:12;74999.16;;;-145.72;84.86
15914;BME280;8055;51.930;8.840;2024-02-23T08:47:41;74984.66;;;-145.72;85.33
15914;BME280;8055;51.930;8.840;2024-02-23T08:50:07;74984.66;;;-145.72;86.59
15914;BME280;8055;51.930;8.840;2024-02-23T08:52:32;74980.53;;;-145.72;84.03
15914;BME280;8055;51.930;8.840;2024-02-23T08:54:58;74972.25;;;-145.72;84.45
15914;BME280;8055;51.930;8.840;2024-02-23T08:57:23;74970.19;;;-145.72;83.50
15914;BME280;8055;51.930;8.840;2024-02-23T08:59:49;74970.19;;;-145.72;83.63
15914;BME280;8055;51.930;8.840;2024-02-23T09:02:15;74961.91;;;-145.72;82.09
15914;BME280;8055;51.930;8.840;2024-02-23T09:04:40;74959.84;;;-145.72;83.27
15914;BME280;8055;51.930;8.840;2024-02-23T09:07:06;74939.16;;;-145.72;80.98
15914;BME280;8055;51.930;8.840;2024-02-23T09:09:31;74937.06;;;-145.72;80.86
15914;BME280;8055;51.930;8.840;2024-02-23T09:11:56;74922.59;;;-145.72;82.35
15914;BME280;8055;51.930;8.840;2024-02-23T09:14:22;74922.59;;;-145.72;79.14
15914;BME280;8055;51.930;8.840;2024-02-23T09:16:47;74918.47;;;-145.72;78.01
15914;BME280;8055;51.930;8.840;2024-02-23T09:19:19;74914.31;;;-145.72;80.18
15914;BME280;8055;51.930;8.840;2024-02-23T09:21:44;74906.03;;;-145.72;78.74
15914;BME280;8055;51.930;8.840;2024-02-23T09:24:10;74906.03;;;-145.72;80.62
15914;BME280;8055;51.930;8.840;2024-02-23T09:26:36;74893.63;;;-145.72;79.93
15914;BME280;8055;51.930;8.840;2024-02-23T09:29:01;74895.69;;;-145.72;80.13
15914;BME280;8055;51.930;8.840;2024-02-23T09:31:26;74893.63;;;-145.72;78.66
15914;BME280;8055;51.930;8.840;2024-02-23T09:33:54;74897.78;;;-145.72;80.57
15914;BME280;8055;51.930;8.840;2024-02-23T09:36:20;74901.91;;;-145.72;78.80
15914;BME280;8055;51.930;8.840;2024-02-23T09:38:46;74883.28;;;-145.72;75.94
15914;BME280;8055;51.930;8.840;2024-02-23T09:41:23;74864.66;;;-145.72;76.74
15914;BME280;8055;51.930;8.840;2024-02-23T09:43:49;74872.94;;;-145.72;76.30
15914;BME280;8055;51.930;8.840;2024-02-23T09:46:17;74877.09;;;-145.72;74.92
15914;BME280;8055;51.930;8.840;2024-02-23T09:48:45;74864.66;;;-145.72;76.08
15914;BME280;8055;51.930;8.840;2024-02-23T09:51:15;74868.81;;;-145.72;74.72
15914;BME280;8055;51.930;8.840;2024-02-23T09:53:41;74868.81;;;-145.72;75.50
15914;BME280;8055;51.930;8.840;2024-02-23T09:56:08;74866.75;;;-145.72;74.18
15914;BME280;8055;51.930;8.840;2024-02-23T09:58:39;74862.59;;;-145.72;74.81
15914;BME280;8055;51.930;8.840;2024-02-23T10:01:06;74848.13;;;-145.72;75.00
15914;BME280;8055;51.930;8.840;2024-02-23T10:03:32;74835.72;;;-145.72;75.04
15914;BME280;8055;51.930;8.840;2024-02-23T10:05:57;74831.56;;;-145.72;71.50
15914;BME280;8055;51.930;8.840;2024-02-23T10:08:23;74829.50;;;-145.72;71.37
15914;BME280;8055;51.930;8.840;2024-02-23T10:10:48;74831.56;;;-145.72;71.45
15914;BME280;8055;51.930;8.840;2024-02-23T10:13:33;74817.09;;;-145.72;71.54
15914;BME280;8055;51.930;8.840;2024-02-23T10:15:58;74827.44;;;-145.72;70.11
15914;BME280;8055;51.930;8.840;2024-02-23T10:18:24;74843.97;;;-145.72;71.58
15914;BME280;8055;51.930;8.840;2024-02-23T10:20:49;74827.44;;;-145.72;70.39
15914;BME280;8055;51.930;8.840;2024-02-23T10:23:15;74835.72;;;-145.72;70.50
15914;BME280;8055;51.930;8.840;2024-02-23T10:25:41;74839.84;;;-145.72;71.15
15914;BME280;8055;51.930;8.840;2024-02-23T10:28:06;74837.78;;;-145.72;70.67
15914;BME280;8055;51.930;8.840;2024-02-23T10:30:33;74835.72;;;-145.72;70.15
15914;BME280;8055;51.930;8.840;2024-02-23T10:32:58;74829.50;;;-145.72;68.83
15914;BME280;8055;51.930;8.840;2024-02-23T10:35:25;74829.50;;;-145.72;67.88
15914;BME280;8055;51.930;8.840;2024-02-23T10:37:53;74831.56;;;-145.72;66.82
15914;BME280;8055;51.930;8.840;2024-02-23T10:40:20;74829.50;;;-145.72;68.87
15914;BME280;8055;51.930;8.840;2024-02-23T10:42:48;74823.28;;;-145.72;69.78
15914;BME280;8055;51.930;8.840;2024-02-23T10:45:17;74831.56;;;-145.72;69.96
15914;BME280;8055;51.930;8.840;2024-02-23T10:47:43;74825.38;;;-145.72;67.16
15914;BME280;8055;51.930;8.840;2024-02-23T10:50:09;74815.03;;;-145.72;68.07
15914;BME280;8055;51.930;8.840;2024-02-23T10:52:35;74802.63;;;-145.72;67.76
15914;BME280;8055;51.930;8.840;2024-02-23T10:55:01;74790.19;;;-145.72;67.46
15914;BME280;8055;51.930;8.840;2024-02-23T10:57:30;74781.91;;;-145.72;65.35
15914;BME280;8055;51.930;8.840;2024-02-23T10:59:57;74786.06;;;-145.72;63.16
15914;BME280;8055;51.930;8.840;2024-02-23T11:02:23;74784.00;;;-145.72;67.09
15914;BME280;8055;51.930;8.840;2024-02-23T11:04:50;74773.66;;;-145.72;66.55
15914;BME280;8055;51.930;8.840;2024-02-23T11:07:18;74752.97;;;-145.72;68.45
15914;BME280;8055;51.930;8.840;2024-02-23T11:09:49;74740.56;;;-145.72;65.91
15914;BME280;8055;51.930;8.840;2024-02-23T11:12:24;74726.06;;;-145.72;67.17
15914;BME280;8055;51.930;8.840;2024-02-23T11:14:49;74701.25;;;-145.72;65.38
15914;BME280;8055;51.930;8.840;2024-02-23T11:17:18;74695.03;;;-145.72;65.83
15914;BME280;8055;51.930;8.840;2024-02-23T11:19:46;74684.69;;;-145.72;66.40
15914;BME280;8055;51.930;8.840;2024-02-23T11:22:14;74680.56;;;-145.72;63.42
15914;BME280;8055;51.930;8.840;2024-02-23T11:24:43;74670.22;;;-145.72;62.09
15914;BME280;8055;51.930;8.840;2024-02-23T11:27:14;74651.59;;;-145.72;63.07
15914;BME280;8055;51.930;8.840;2024-02-23T11:29:39;74670.22;;;-145.72;64.55
15914;BME280;8055;51.930;8.840;2024-02-23T11:32:13;74657.81;;;-145.72;63.07
15914;BME280;8055;51.930;8.840;2024-02-23T11:34:39;74664.00;;;-145.72;61.39
15914;BME280;8055;51.930;8.840;2024-02-23T11:37:10;74664.00;;;-145.72;66.35
15914;BME280;8055;51.930;8.840;2024-02-23T11:39:39;74659.88;;;-145.72;62.93
15914;BME280;8055;51.930;8.840;2024-02-23T11:42:06;74655.72;;;-145.72;62.66
15914;BME280;8055;51.930;8.840;2024-02-23T11:44:31;74664.00;;;-145.72;60.08
15914;BME280;8055;51.930;8.840;2024-02-23T11:46:58;74661.94;;;-145.72;63.91
15914;BME280;8055;51.930;8.840;2024-02-23T11:49:30;74661.94;;;-145.72;61.88
15914;BME280;8055;51.930;8.840;2024-02-23T11:51:55;74649.53;;;-145.72;64.75
15914;BME280;8055;51.930;8.840;2024-02-23T11:54:22;74664.00;;;-145.72;62.47
15914;BME280;8055;51.930;8.840;2024-02-23T11:56:48;74661.94;;;-145.72;65.27
15914;BME280;8055;51.930;8.840;2024-02-23T11:59:15;74659.88;;;-145.72;63.27
15914;BME280;8055;51.930;8.840;2024-02-23T12:01:40;74651.59;;;-145.72;63.22
15914;BME280;8055;51.930;8.840;2024-02-23T12:04:06;74655.72;;;-145.72;62.56
15914;BME280;8055;51.930;8.840;2024-02-23T12:06:33;74649.53;;;-145.72;62.59
15914;BME280;8055;51.930;8.840;2024-02-23T12:08:58;74649.53;;;-145.72;70.61
15914;BME280;8055;51.930;8.840;2024-02-23T12:11:24;74626.78;;;-145.72;66.34
15914;BME280;8055;51.930;8.840;2024-02-23T12:13:50;74628.84;;;-145.72;63.84
15914;BME280;8055;51.930;8.840;2024-02-23T12:16:16;74641.25;;;-145.72;59.20
15914;BME280;8055;51.930;8.840;2024-02-23T12:18:41;74641.25;;;-145.72;62.04
15914;BME280;8055;51.930;8.840;2024-02-23T12:21:08;74643.31;;;-145.72;64.49
15914;BME280;8055;51.930;8.840;2024-02-23T12:23:43;74651.59;;;-145.72;61.52
15914;BME280;8055;51.930;8.840;2024-02-23T12:26:13;74653.66;;;-145.72;59.65
15914;BME280;8055;51.930;8.840;2024-02-23T12:28:39;74637.13;;;-145.72;58.80
15914;BME280;8055;51.930;8.840;2024-02-23T12:31:05;74637.13;;;-145.72;62.69
15914;BME280;8055;51.930;8.840;2024-02-23T12:33:33;74643.31;;;-145.72;63.01
15914;BME280;8055;51.930;8.840;2024-02-23T12:35:59;74635.03;;;-145.72;59.85
15914;BME280;8055;51.930;8.840;2024-02-23T12:38:25;74626.78;;;-145.72;62.06
15914;BME280;8055;51.930;8.840;2024-02-23T12:40:51;74635.03;;;-145.72;62.60
15914;BME280;8055;51.930;8.840;2024-02-23T12:43:17;74632.97;;;-145.72;60.08